createdAt,value
2022-09-03T00:01:52.362Z,100.00
2022-09-03T00:04:29.379Z,100.00
2022-09-03T00:07:08.940Z,100.00
2022-09-03T00:09:51.390Z,100.00
2022-09-03T00:12:41.851Z,100.00
2022-09-03T00:15:12.318Z,100.00
2022-09-03T00:17:49.572Z,98.85
2022-09-03T00:20:34.700Z,97.53
2022-09-03T00:23:06.130Z,97.25
2022-09-03T00:25:43.166Z,98.93
2022-09-03T00:28:30.400Z,100.00
2022-09-03T00:31:21.438Z,100.00
2022-09-03T00:33:52.999Z,100.00
2022-09-03T00:36:26.246Z,100.00
2022-09-03T00:38:53.899Z,100.00
2022-09-03T00:41:29.927Z,100.00
2022-09-03T00:44:00.700Z,100.00
2022-09-03T00:46:37.036Z,100.00
2022-09-03T00:49:16.460Z,100.00
2022-09-03T00:51:50.087Z,100.00
2022-09-03T00:54:25.660Z,100.00
2022-09-03T00:57:11.889Z,100.00
2022-09-03T01:00:12.859Z,100.00
2022-09-03T01:03:26.299Z,100.00
2022-09-03T01:06:12.320Z,100.00
2022-09-03T01:08:57.889Z,100.00
2022-09-03T01:11:39.917Z,100.00
2022-09-03T01:14:31.915Z,100.00
2022-09-03T01:17:14.205Z,100.00
2022-09-03T01:19:44.358Z,100.00
2022-09-03T01:22:21.170Z,100.00
2022-09-03T01:25:12.440Z,100.00
2022-09-03T01:27:58.818Z,100.00
2022-09-03T01:30:26.719Z,100.00
2022-09-03T01:33:26.169Z,100.00
2022-09-03T01:36:06.827Z,100.00
2022-09-03T01:38:48.578Z,100.00
2022-09-03T01:42:11.655Z,100.00
2022-09-03T01:45:06.552Z,100.00
2022-09-03T01:48:13.439Z,100.00
2022-09-03T01:51:00.344Z,100.00
2022-09-03T01:53:46.257Z,100.00
2022-09-03T01:56:29.327Z,100.00
2022-09-03T01:59:20.178Z,100.00
2022-09-03T02:02:20.257Z,100.00
2022-09-03T02:05:00.009Z,100.00
2022-09-03T02:07:39.098Z,100.00
2022-09-03T02:10:12.559Z,100.00
2022-09-03T02:12:44.427Z,100.00
2022-09-03T02:15:15.368Z,100.00
2022-09-03T02:17:45.884Z,100.00
2022-09-03T02:20:20.367Z,100.00
2022-09-03T02:22:49.957Z,100.00
2022-09-03T02:25:18.337Z,100.00
2022-09-03T02:27:46.468Z,100.00
2022-09-03T02:30:14.084Z,100.00
2022-09-03T02:32:41.784Z,100.00
2022-09-03T02:35:10.137Z,100.00
2022-09-03T02:37:37.713Z,100.00
2022-09-03T02:40:08.965Z,100.00
2022-09-03T02:42:37.275Z,100.00
2022-09-03T02:45:32.548Z,100.00
2022-09-03T02:48:00.899Z,100.00
2022-09-03T02:50:28.417Z,100.00
2022-09-03T02:52:56.568Z,100.00
2022-09-03T02:55:24.044Z,100.00
2022-09-03T02:57:51.747Z,100.00
2022-09-03T03:00:19.294Z,100.00
2022-09-03T03:02:47.523Z,100.00
2022-09-03T03:05:24.998Z,100.00
2022-09-03T03:07:52.580Z,100.00
2022-09-03T03:10:20.088Z,100.00
2022-09-03T03:12:47.844Z,100.00
2022-09-03T03:15:15.807Z,100.00
2022-09-03T03:17:43.498Z,100.00
2022-09-03T03:20:11.448Z,100.00
2022-09-03T03:22:39.027Z,100.00
2022-09-03T03:25:07.237Z,100.00
2022-09-03T03:27:36.266Z,100.00
2022-09-03T03:30:05.553Z,100.00
2022-09-03T03:32:33.075Z,100.00
2022-09-03T03:35:00.628Z,100.00
2022-09-03T03:37:28.166Z,100.00
2022-09-03T03:39:55.891Z,100.00
2022-09-03T03:42:23.627Z,100.00
2022-09-03T03:44:51.303Z,100.00
2022-09-03T03:47:18.786Z,100.00
2022-09-03T03:49:46.334Z,100.00
2022-09-03T03:52:13.797Z,100.00
2022-09-03T03:54:41.785Z,100.00
2022-09-03T03:57:09.233Z,100.00
2022-09-03T03:59:36.852Z,100.00
2022-09-03T04:02:04.453Z,100.00
2022-09-03T04:04:32.046Z,100.00
2022-09-03T04:06:59.735Z,100.00
2022-09-03T04:09:27.315Z,100.00
2022-09-03T04:11:57.002Z,100.00
2022-09-03T04:14:25.897Z,100.00
2022-09-03T04:16:54.994Z,100.00
2022-09-03T04:19:22.671Z,100.00
2022-09-03T04:21:50.116Z,100.00
2022-09-03T04:24:17.653Z,100.00
2022-09-03T04:26:45.252Z,100.00
2022-09-03T04:29:13.006Z,100.00
2022-09-03T04:32:00.521Z,100.00
2022-09-03T04:34:28.366Z,100.00
2022-09-03T04:36:57.574Z,100.00
2022-09-03T04:39:25.930Z,100.00
2022-09-03T04:41:53.526Z,100.00
2022-09-03T04:44:21.042Z,100.00
2022-09-03T04:46:48.714Z,100.00
2022-09-03T04:49:16.215Z,100.00
2022-09-03T04:51:44.105Z,100.00
2022-09-03T04:54:11.795Z,97.01
2022-09-03T04:56:39.705Z,85.43
2022-09-03T04:59:09.687Z,78.63
2022-09-03T05:01:39.602Z,72.51
2022-09-03T05:04:08.523Z,70.22
2022-09-03T05:06:37.641Z,64.52
2022-09-03T05:09:06.164Z,65.66
2022-09-03T05:11:34.061Z,63.62
2022-09-03T05:14:01.857Z,61.91
2022-09-03T05:16:31.051Z,58.65
2022-09-03T05:19:01.486Z,57.68
2022-09-03T05:21:30.093Z,54.92
2022-09-03T05:24:00.164Z,52.73
2022-09-03T05:26:30.564Z,53.49
2022-09-03T05:29:00.768Z,54.75
2022-09-03T05:31:31.919Z,56.55
2022-09-03T05:34:02.250Z,56.81
2022-09-03T05:36:35.764Z,54.28
2022-09-03T05:39:05.174Z,55.46
2022-09-03T05:41:34.444Z,54.00
2022-09-03T05:44:02.477Z,54.75
2022-09-03T05:46:32.914Z,56.46
2022-09-03T05:49:06.616Z,56.02
2022-09-03T05:51:36.771Z,56.46
2022-09-03T05:54:05.364Z,56.22
2022-09-03T05:56:33.683Z,58.77
2022-09-03T05:59:05.880Z,57.20
2022-09-03T06:01:45.801Z,58.54
2022-09-03T06:04:20.104Z,56.54
2022-09-03T06:06:48.623Z,54.84
2022-09-03T06:09:18.913Z,56.22
2022-09-03T06:11:47.815Z,59.41
2022-09-03T06:14:17.935Z,61.23
2022-09-03T06:16:50.755Z,59.05
2022-09-03T06:19:18.935Z,62.33
2022-09-03T06:21:47.527Z,59.64
2022-09-03T06:24:17.467Z,58.19
2022-09-03T06:26:45.556Z,57.38
2022-09-03T06:29:13.501Z,55.47
2022-09-03T06:31:41.516Z,55.12
2022-09-03T06:34:09.285Z,55.47
2022-09-03T06:36:36.834Z,56.50
2022-09-03T06:39:04.814Z,57.51
2022-09-03T06:41:35.531Z,60.28
2022-09-03T06:44:06.110Z,57.52
2022-09-03T06:46:39.035Z,57.99
2022-09-03T06:49:08.564Z,62.23
2022-09-03T06:51:38.113Z,60.58
2022-09-03T06:54:08.531Z,64.99
2022-09-03T06:56:40.170Z,62.57
2022-09-03T06:59:14.034Z,66.73
2022-09-03T07:01:45.530Z,62.73
2022-09-03T07:04:19.302Z,62.72
2022-09-03T07:06:48.194Z,68.74
2022-09-03T07:09:18.480Z,70.07
2022-09-03T07:11:48.427Z,70.55
2022-09-03T07:14:19.187Z,70.92
2022-09-03T07:16:48.124Z,75.69
2022-09-03T07:19:16.334Z,70.57
2022-09-03T07:21:49.136Z,70.85
2022-09-03T07:24:18.850Z,70.72
2022-09-03T07:26:49.700Z,67.86
2022-09-03T07:29:20.829Z,71.14
2022-09-03T07:31:52.222Z,74.52
2022-09-03T07:34:24.378Z,73.93
2022-09-03T07:36:54.082Z,76.25
2022-09-03T07:39:21.657Z,78.26
2022-09-03T07:41:50.363Z,76.62
2022-09-03T07:44:21.772Z,75.07
2022-09-03T07:46:51.390Z,79.14
2022-09-03T07:49:22.168Z,81.16
2022-09-03T07:51:52.525Z,80.08
2022-09-03T07:54:22.109Z,79.42
2022-09-03T07:56:49.610Z,78.91
2022-09-03T07:59:17.259Z,76.39
2022-09-03T08:01:44.999Z,72.86
2022-09-03T08:04:12.649Z,76.69
2022-09-03T08:06:40.464Z,77.92
2022-09-03T08:09:11.507Z,70.80
2022-09-03T08:11:42.612Z,72.18
2022-09-03T08:14:12.265Z,60.64
2022-09-03T08:16:47.529Z,62.76
2022-09-03T08:19:15.739Z,65.65
2022-09-03T08:21:43.265Z,69.33
2022-09-03T08:24:12.408Z,68.64
2022-09-03T08:26:50.369Z,66.84
2022-09-03T08:29:20.573Z,61.47
2022-09-03T08:31:48.191Z,70.29
2022-09-03T08:34:17.879Z,65.68
2022-09-03T08:36:47.439Z,60.71
2022-09-03T08:39:15.245Z,57.36
2022-09-03T08:41:55.218Z,60.87
2022-09-03T08:44:49.565Z,60.12
2022-09-03T08:47:40.703Z,68.50
2022-09-03T08:50:29.594Z,67.73
2022-09-03T08:53:21.772Z,55.99
2022-09-03T08:56:10.603Z,53.21
2022-09-03T08:58:39.309Z,51.17
2022-09-03T09:01:09.945Z,51.97
2022-09-03T09:04:05.514Z,50.82
2022-09-03T09:06:48.180Z,51.29
2022-09-03T09:09:50.163Z,50.05
2022-09-03T09:12:26.938Z,48.07
2022-09-03T09:15:41.914Z,48.79
2022-09-03T09:19:02.002Z,51.12
2022-09-03T09:21:49.511Z,50.32
2022-09-03T09:24:26.586Z,49.77
2022-09-03T09:27:03.081Z,51.29
2022-09-03T09:29:37.054Z,49.57
2022-09-03T09:32:08.693Z,50.99
2022-09-03T09:34:38.983Z,50.24
2022-09-03T09:37:10.433Z,51.22
2022-09-03T09:39:38.348Z,49.33
2022-09-03T09:42:10.142Z,50.42
2022-09-03T09:44:43.203Z,49.21
2022-09-03T09:47:15.413Z,48.90
2022-09-03T09:49:51.873Z,50.49
2022-09-03T09:52:22.278Z,48.88
2022-09-03T09:54:49.862Z,50.20
2022-09-03T09:57:22.652Z,49.82
2022-09-03T09:59:50.759Z,49.64
2022-09-03T10:02:29.039Z,52.32
2022-09-03T10:05:02.362Z,52.69
2022-09-03T10:07:33.217Z,50.15
2022-09-03T10:10:22.821Z,49.64
2022-09-03T10:13:09.619Z,51.87
2022-09-03T10:15:40.201Z,49.10
2022-09-03T10:18:29.067Z,53.21
2022-09-03T10:21:16.114Z,51.21
2022-09-03T10:24:21.187Z,50.48
2022-09-03T10:26:48.740Z,51.78
2022-09-03T10:29:21.272Z,55.08
2022-09-03T10:32:02.413Z,52.67
2022-09-03T10:34:45.411Z,51.01
2022-09-03T10:37:26.311Z,52.04
2022-09-03T10:40:25.077Z,53.80
2022-09-03T10:43:05.152Z,50.67
2022-09-03T10:45:48.351Z,50.93
2022-09-03T10:48:32.651Z,49.03
2022-09-03T10:51:26.771Z,49.62
2022-09-03T10:54:14.762Z,46.63
2022-09-03T10:56:58.281Z,49.45
2022-09-03T10:59:46.051Z,47.74
2022-09-03T11:02:44.150Z,48.71
2022-09-03T11:05:19.300Z,51.95
2022-09-03T11:07:53.422Z,48.31
2022-09-03T11:10:41.416Z,47.20
2022-09-03T11:13:25.320Z,46.67
2022-09-03T11:15:59.726Z,46.08
2022-09-03T11:18:35.182Z,45.61
2022-09-03T11:21:11.931Z,47.63
2022-09-03T11:23:55.168Z,46.67
2022-09-03T11:26:26.486Z,44.54
2022-09-03T11:29:13.279Z,45.49
2022-09-03T11:32:01.877Z,47.13
2022-09-03T11:34:45.180Z,46.80
2022-09-03T11:37:20.936Z,48.18
2022-09-03T11:40:22.181Z,47.38
2022-09-03T11:42:50.556Z,46.58
2022-09-03T11:45:36.783Z,47.18
2022-09-03T11:48:33.476Z,46.55
2022-09-03T11:51:01.240Z,46.03
2022-09-03T11:53:37.157Z,44.16
2022-09-03T11:56:05.515Z,46.47
2022-09-03T11:58:39.396Z,48.01
2022-09-03T12:01:14.978Z,46.54
2022-09-03T12:03:45.542Z,46.29
2022-09-03T12:06:57.798Z,49.19
2022-09-03T12:09:59.761Z,46.72
2022-09-03T12:12:39.519Z,50.16
2022-09-03T12:15:15.761Z,47.22
2022-09-03T12:18:19.720Z,47.55
2022-09-03T12:21:00.479Z,46.76
2022-09-03T12:23:28.808Z,46.31
2022-09-03T12:26:15.079Z,47.26
2022-09-03T12:28:45.799Z,47.56
2022-09-03T12:31:23.258Z,49.55
2022-09-03T12:33:54.721Z,49.40
2022-09-03T12:36:23.926Z,48.37
2022-09-03T12:42:08.924Z,49.53
2022-09-03T12:44:36.639Z,46.84
2022-09-03T12:50:05.206Z,47.77
2022-09-03T12:52:38.538Z,45.50
2022-09-03T12:55:18.038Z,44.11
2022-09-03T12:58:03.875Z,42.82
2022-09-03T13:00:35.121Z,42.90
2022-09-03T13:03:06.215Z,44.90
2022-09-03T13:05:43.159Z,45.22
2022-09-03T13:08:19.156Z,45.31
2022-09-03T13:10:55.686Z,46.58
2022-09-03T13:13:37.578Z,44.96
2022-09-03T13:16:11.137Z,44.02
2022-09-03T13:18:38.839Z,43.89
2022-09-03T13:21:32.460Z,43.67
2022-09-03T13:24:40.919Z,44.39
2022-09-03T13:27:19.562Z,43.16
2022-09-03T13:30:09.402Z,44.08
2022-09-03T13:33:14.195Z,46.41
2022-09-03T13:36:17.378Z,44.19
2022-09-03T13:39:06.537Z,46.17
2022-09-03T13:42:20.278Z,45.16
2022-09-03T13:45:06.856Z,45.69
2022-09-03T13:48:15.878Z,45.76
2022-09-03T13:50:59.079Z,44.53
2022-09-03T13:53:43.303Z,44.84
2022-09-03T13:56:38.714Z,45.89
2022-09-03T13:59:13.875Z,44.96
2022-09-03T14:02:10.377Z,45.36
2022-09-03T14:04:52.274Z,43.65
2022-09-03T14:07:46.694Z,46.31
2022-09-03T14:10:20.300Z,45.75
2022-09-03T14:13:00.715Z,47.25
2022-09-03T14:15:37.315Z,46.42
2022-09-03T14:18:19.361Z,46.29
2022-09-03T14:20:58.760Z,46.55
2022-09-03T14:23:26.464Z,44.90
2022-09-03T14:25:56.219Z,46.62
2022-09-03T14:28:35.919Z,45.71
2022-09-03T14:31:28.573Z,46.56
2022-09-03T14:34:22.375Z,44.83
2022-09-03T14:37:03.574Z,45.47
2022-09-03T14:40:13.501Z,45.71
2022-09-03T14:43:22.154Z,47.55
2022-09-03T14:46:08.432Z,47.81
2022-09-03T14:49:10.560Z,45.46
2022-09-03T14:52:03.718Z,47.00
2022-09-03T14:54:42.834Z,46.54
2022-09-03T14:57:55.916Z,46.78
2022-09-03T15:00:43.799Z,46.91
2022-09-03T15:03:18.004Z,48.67
2022-09-03T15:06:07.800Z,48.77
2022-09-03T15:09:03.255Z,48.41
2022-09-03T15:11:34.715Z,48.70
2022-09-03T15:14:17.039Z,48.30
2022-09-03T15:16:47.923Z,50.35
2022-09-03T15:19:51.699Z,49.57
2022-09-03T15:22:38.358Z,48.20
2022-09-03T15:25:33.961Z,50.84
2022-09-03T15:28:35.138Z,51.19
2022-09-03T15:31:11.799Z,51.09
2022-09-03T15:34:08.935Z,50.68
2022-09-03T15:36:45.394Z,51.82
2022-09-03T15:39:22.922Z,52.62
2022-09-03T15:42:22.178Z,53.15
2022-09-03T15:44:55.118Z,52.71
2022-09-03T15:47:50.734Z,53.40
2022-09-03T15:50:29.677Z,54.88
2022-09-03T15:53:25.665Z,53.99
2022-09-03T15:56:15.458Z,54.29
2022-09-03T15:58:53.851Z,54.94
2022-09-03T16:01:35.529Z,53.87
2022-09-03T16:04:25.776Z,52.76
2022-09-03T16:07:12.017Z,54.87
2022-09-03T16:10:23.139Z,54.94
2022-09-03T16:12:59.218Z,55.61
2022-09-03T16:15:47.474Z,54.77
2022-09-03T16:18:33.800Z,55.66
2022-09-03T16:21:14.845Z,55.52
2022-09-03T16:24:31.697Z,55.39
2022-09-03T16:27:25.435Z,56.24
2022-09-03T16:30:11.114Z,56.09
2022-09-03T16:32:57.113Z,55.85
2022-09-03T16:35:47.196Z,56.29
2022-09-03T16:38:26.479Z,57.06
2022-09-03T16:41:18.818Z,58.23
2022-09-03T16:44:11.644Z,59.61
2022-09-03T16:46:48.660Z,58.97
2022-09-03T16:49:53.637Z,60.07
2022-09-03T16:52:56.217Z,59.76
2022-09-03T16:55:57.598Z,57.59
2022-09-03T16:59:05.865Z,57.22
2022-09-03T17:01:40.192Z,57.43
2022-09-03T17:04:22.917Z,57.07
2022-09-03T17:07:01.516Z,57.47
2022-09-03T17:09:36.357Z,57.49
2022-09-03T17:12:34.676Z,57.78
2022-09-03T17:15:31.538Z,58.79
2022-09-03T17:18:34.146Z,58.29
2022-09-03T17:21:17.293Z,58.46
2022-09-03T17:24:31.890Z,59.39
2022-09-03T17:27:09.796Z,59.96
2022-09-03T17:30:04.615Z,60.48
2022-09-03T17:32:35.798Z,62.51
2022-09-03T17:35:12.536Z,65.12
2022-09-03T17:37:44.157Z,64.72
2022-09-03T17:40:37.112Z,65.10
2022-09-03T17:43:13.657Z,68.54
2022-09-03T17:46:03.397Z,69.35
2022-09-03T17:49:08.757Z,72.94
2022-09-03T17:51:46.377Z,75.38
2022-09-03T17:54:56.235Z,76.38
2022-09-03T17:57:40.592Z,74.67
2022-09-03T18:00:10.963Z,74.14
2022-09-03T18:02:51.495Z,73.53
2022-09-03T18:05:44.390Z,75.23
2022-09-03T18:08:25.395Z,74.56
2022-09-03T18:11:18.836Z,76.25
2022-09-03T18:14:09.475Z,77.06
2022-09-03T18:16:50.052Z,77.55
2022-09-03T18:19:58.198Z,77.83
2022-09-03T18:22:51.094Z,78.16
2022-09-03T18:25:41.855Z,78.84
2022-09-03T18:28:34.535Z,80.19
2022-09-03T18:31:20.824Z,80.09
2022-09-03T18:34:07.152Z,79.68
2022-09-03T18:36:53.553Z,82.17
2022-09-03T18:39:59.012Z,82.21
2022-09-03T18:42:50.751Z,83.37
2022-09-03T18:47:00.324Z,84.07
2022-09-03T18:50:01.575Z,84.54
2022-09-03T18:53:14.753Z,86.51
2022-09-03T18:56:35.193Z,88.20
2022-09-03T18:59:21.596Z,88.56
2022-09-03T19:02:09.484Z,88.93
2022-09-03T19:05:17.435Z,88.95
2022-09-03T19:08:16.455Z,90.67
2022-09-03T19:11:13.090Z,90.47
2022-09-03T19:14:01.276Z,100.00
2022-09-03T19:17:18.676Z,100.00
2022-09-03T19:20:27.394Z,100.00
2022-09-03T19:23:13.715Z,100.00
2022-09-03T19:26:02.516Z,100.00
2022-09-03T19:28:52.334Z,100.00
2022-09-03T19:32:05.333Z,99.65
2022-09-03T19:34:57.830Z,98.58
2022-09-03T19:38:07.954Z,99.04
2022-09-03T19:40:56.915Z,98.71
2022-09-03T19:44:19.430Z,100.00
2022-09-03T19:47:24.314Z,100.00
2022-09-03T19:50:24.672Z,100.00
2022-09-03T19:53:21.013Z,100.00
2022-09-03T19:56:13.134Z,100.00
2022-09-03T19:59:05.850Z,100.00
2022-09-03T20:01:54.775Z,100.00
2022-09-03T20:05:06.473Z,100.00
2022-09-03T20:07:54.476Z,100.00
2022-09-03T20:10:24.830Z,100.00
2022-09-03T20:13:02.274Z,100.00
2022-09-03T20:15:42.338Z,100.00
2022-09-03T20:18:49.075Z,100.00
2022-09-03T20:21:35.150Z,100.00
2022-09-03T20:24:07.313Z,100.00
2022-09-03T20:27:12.433Z,100.00
2022-09-03T20:29:56.874Z,100.00
2022-09-03T20:32:58.833Z,100.00
2022-09-03T20:35:34.049Z,100.00
2022-09-03T20:38:13.974Z,100.00
2022-09-03T20:41:18.953Z,100.00
2022-09-03T20:43:47.793Z,100.00
2022-09-03T20:46:49.713Z,100.00
2022-09-03T20:49:38.754Z,100.00
2022-09-03T20:52:21.293Z,100.00
2022-09-03T20:55:20.309Z,100.00
2022-09-03T20:57:53.792Z,100.00
2022-09-03T21:00:23.499Z,100.00
2022-09-03T21:03:20.389Z,100.00
2022-09-03T21:06:07.053Z,100.00
2022-09-03T21:08:49.693Z,100.00
2022-09-03T21:11:29.096Z,100.00
2022-09-03T21:14:01.792Z,100.00
2022-09-03T21:17:05.177Z,100.00
2022-09-03T21:19:43.072Z,100.00
2022-09-03T21:22:38.331Z,100.00
2022-09-03T21:25:12.553Z,100.00
2022-09-03T21:27:49.352Z,100.00
2022-09-03T21:30:19.531Z,100.00
2022-09-03T21:32:54.348Z,100.00
2022-09-03T21:35:33.057Z,100.00
2022-09-03T21:38:13.452Z,100.00
2022-09-03T21:40:49.816Z,100.00
2022-09-03T21:43:44.353Z,100.00
2022-09-03T21:46:21.746Z,100.00
2022-09-03T21:48:58.537Z,100.00
2022-09-03T21:51:38.951Z,100.00
2022-09-03T21:54:13.488Z,100.00
2022-09-03T21:56:52.374Z,100.00
2022-09-03T22:00:18.412Z,100.00
2022-09-03T22:02:47.411Z,100.00
2022-09-03T22:05:16.554Z,100.00
2022-09-03T22:07:55.510Z,100.00
2022-09-03T22:10:25.951Z,100.00
2022-09-03T22:13:18.888Z,100.00
2022-09-03T22:15:50.412Z,100.00
2022-09-03T22:18:37.633Z,100.00
2022-09-03T22:21:13.387Z,100.00
2022-09-03T22:24:22.496Z,100.00
2022-09-03T22:26:56.312Z,100.00
2022-09-03T22:29:41.412Z,100.00
2022-09-03T22:32:25.287Z,100.00
2022-09-03T22:35:40.671Z,100.00
2022-09-03T22:38:49.731Z,100.00
2022-09-03T22:45:40.639Z,100.00
2022-09-03T22:48:39.144Z,100.00
2022-09-03T22:51:06.993Z,100.00
2022-09-03T22:54:05.289Z,100.00
2022-09-03T22:56:38.293Z,100.00
2022-09-03T22:59:11.815Z,100.00
2022-09-03T23:02:15.523Z,100.00
2022-09-03T23:04:52.126Z,100.00
2022-09-03T23:07:27.183Z,100.00
2022-09-03T23:10:00.783Z,100.00
2022-09-03T23:12:37.753Z,100.00
2022-09-03T23:15:11.602Z,100.00
2022-09-03T23:17:43.055Z,100.00
2022-09-03T23:20:22.593Z,100.00
2022-09-03T23:22:54.703Z,100.00
2022-09-03T23:25:29.261Z,100.00
2022-09-03T23:28:08.924Z,100.00
2022-09-03T23:30:36.725Z,100.00
2022-09-03T23:33:04.323Z,100.00
2022-09-03T23:35:47.994Z,100.00
2022-09-03T23:38:27.293Z,100.00
2022-09-03T23:41:03.422Z,100.00
2022-09-03T23:43:59.393Z,100.00
2022-09-03T23:47:02.313Z,100.00
2022-09-03T23:49:47.562Z,100.00
2022-09-03T23:52:26.943Z,100.00
2022-09-03T23:55:11.052Z,100.00
2022-09-03T23:57:57.111Z,100.00
